createdAt,value
2022-08-28T00:02:01.309Z,71.59
2022-08-28T00:04:28.492Z,71.75
2022-08-28T00:06:55.818Z,71.69
2022-08-28T00:09:22.967Z,71.81
2022-08-28T00:11:50.413Z,71.95
2022-08-28T00:14:21.257Z,71.85
2022-08-28T00:16:49.742Z,71.97
2022-08-28T00:19:18.051Z,71.87
2022-08-28T00:21:45.784Z,71.72
2022-08-28T00:24:13.443Z,71.72
2022-08-28T00:26:59.277Z,71.63
2022-08-28T00:29:26.481Z,71.72
2022-08-28T00:31:53.735Z,71.52
2022-08-28T00:34:21.233Z,71.42
2022-08-28T00:37:00.609Z,71.40
2022-08-28T00:39:27.886Z,71.56
2022-08-28T00:41:56.677Z,71.56
2022-08-28T00:44:26.376Z,71.70
2022-08-28T00:46:55.070Z,71.75
2022-08-28T00:49:24.869Z,71.66
2022-08-28T00:52:12.667Z,71.65
2022-08-28T00:54:59.265Z,71.74
2022-08-28T00:57:35.277Z,71.87
2022-08-28T01:00:04.366Z,71.97
2022-08-28T01:02:32.297Z,71.98
2022-08-28T01:04:59.717Z,71.86
2022-08-28T01:07:26.837Z,71.93
2022-08-28T01:09:54.525Z,72.00
2022-08-28T01:12:24.108Z,71.94
2022-08-28T01:14:52.389Z,72.05
2022-08-28T01:17:20.182Z,71.97
2022-08-28T01:19:56.000Z,71.93
2022-08-28T01:22:38.634Z,71.79
2022-08-28T01:25:12.510Z,71.87
2022-08-28T01:27:42.230Z,71.87
2022-08-28T01:30:14.772Z,71.88
2022-08-28T01:32:44.737Z,72.03
2022-08-28T01:35:14.781Z,71.99
2022-08-28T01:37:42.506Z,72.00
2022-08-28T01:40:11.149Z,72.11
2022-08-28T01:42:42.641Z,72.22
2022-08-28T01:45:12.107Z,72.44
2022-08-28T01:47:39.919Z,72.54
2022-08-28T01:50:07.673Z,72.61
2022-08-28T01:52:36.662Z,72.62
2022-08-28T01:55:05.823Z,72.77
2022-08-28T01:57:33.424Z,72.95
2022-08-28T02:00:00.610Z,73.02
2022-08-28T02:02:27.721Z,73.02
2022-08-28T02:04:55.078Z,72.81
2022-08-28T02:07:22.479Z,72.61
2022-08-28T02:09:49.581Z,72.63
2022-08-28T02:12:18.087Z,72.65
2022-08-28T02:14:45.315Z,72.67
2022-08-28T02:17:12.478Z,72.66
2022-08-28T02:19:39.573Z,72.43
2022-08-28T02:22:08.708Z,72.36
2022-08-28T02:24:36.105Z,72.36
2022-08-28T02:27:04.951Z,72.39
2022-08-28T02:29:32.223Z,72.48
2022-08-28T02:32:01.708Z,72.49
2022-08-28T02:34:28.811Z,72.47
2022-08-28T02:37:01.365Z,72.50
2022-08-28T02:39:28.582Z,72.66
2022-08-28T02:41:56.071Z,72.64
2022-08-28T02:44:23.193Z,72.59
2022-08-28T02:46:50.349Z,72.70
2022-08-28T02:49:17.695Z,72.78
2022-08-28T02:51:44.957Z,72.83
2022-08-28T02:54:12.200Z,72.76
2022-08-28T02:56:42.013Z,72.85
2022-08-28T02:59:09.195Z,72.96
2022-08-28T03:01:36.458Z,72.95
2022-08-28T03:04:05.662Z,72.86
2022-08-28T03:06:33.176Z,72.87
2022-08-28T03:09:00.526Z,73.52
2022-08-28T03:11:27.678Z,74.98
2022-08-28T03:13:55.784Z,75.74
2022-08-28T03:16:25.559Z,75.92
2022-08-28T03:18:52.960Z,76.02
2022-08-28T03:21:20.164Z,76.11
2022-08-28T03:23:47.763Z,76.26
2022-08-28T03:26:17.658Z,76.37
2022-08-28T03:28:50.523Z,76.59
2022-08-28T03:31:19.560Z,76.62
2022-08-28T03:33:47.490Z,76.64
2022-08-28T03:36:17.813Z,76.68
2022-08-28T03:38:47.432Z,76.84
2022-08-28T03:41:16.655Z,77.00
2022-08-28T03:43:43.873Z,77.16
2022-08-28T03:46:15.427Z,77.17
2022-08-28T03:48:44.682Z,77.19
2022-08-28T03:51:17.750Z,76.94
2022-08-28T03:53:45.168Z,76.94
2022-08-28T03:56:14.593Z,77.01
2022-08-28T03:58:42.021Z,77.09
2022-08-28T04:01:09.650Z,77.21
2022-08-28T04:03:37.115Z,77.05
2022-08-28T04:06:04.596Z,76.74
2022-08-28T04:08:31.846Z,76.67
2022-08-28T04:11:00.945Z,76.56
2022-08-28T04:13:28.412Z,76.78
2022-08-28T04:16:06.248Z,76.57
2022-08-28T04:18:33.868Z,76.15
2022-08-28T04:21:02.709Z,75.96
2022-08-28T04:23:30.230Z,75.76
2022-08-28T04:25:57.567Z,75.46
2022-08-28T04:28:24.828Z,75.27
2022-08-28T04:30:54.644Z,75.01
2022-08-28T04:33:23.007Z,74.79
2022-08-28T04:35:50.392Z,74.58
2022-08-28T04:38:22.531Z,74.56
2022-08-28T04:40:49.690Z,74.42
2022-08-28T04:43:16.831Z,74.30
2022-08-28T04:45:45.160Z,74.13
2022-08-28T04:48:13.810Z,74.16
2022-08-28T04:50:45.769Z,73.80
2022-08-28T04:53:13.425Z,73.43
2022-08-28T04:55:54.965Z,73.46
2022-08-28T04:58:23.779Z,73.13
2022-08-28T05:00:52.460Z,73.20
2022-08-28T05:03:19.931Z,72.96
2022-08-28T05:05:49.028Z,72.75
2022-08-28T05:08:16.934Z,72.55
2022-08-28T05:10:44.043Z,72.17
2022-08-28T05:13:11.623Z,71.84
2022-08-28T05:15:46.044Z,71.21
2022-08-28T05:18:14.514Z,71.07
2022-08-28T05:20:44.117Z,70.94
2022-08-28T05:23:11.901Z,70.48
2022-08-28T05:25:42.096Z,70.04
2022-08-28T05:28:12.155Z,69.64
2022-08-28T05:30:40.504Z,69.34
2022-08-28T05:33:08.468Z,68.63
2022-08-28T05:35:36.736Z,68.37
2022-08-28T05:38:04.218Z,67.92
2022-08-28T05:40:31.510Z,67.27
2022-08-28T05:42:58.718Z,66.85
2022-08-28T05:45:26.154Z,66.45
2022-08-28T05:47:54.327Z,66.04
2022-08-28T05:50:21.990Z,65.80
2022-08-28T05:52:51.498Z,64.73
2022-08-28T05:55:18.972Z,63.48
2022-08-28T05:57:46.715Z,62.72
2022-08-28T06:00:14.582Z,62.54
2022-08-28T06:02:42.434Z,61.71
2022-08-28T06:05:13.017Z,61.09
2022-08-28T06:07:41.500Z,61.28
2022-08-28T06:10:10.764Z,60.55
2022-08-28T06:12:38.427Z,60.23
2022-08-28T06:15:06.147Z,59.35
2022-08-28T06:17:33.229Z,58.77
2022-08-28T06:20:00.482Z,58.27
2022-08-28T06:22:27.633Z,57.71
2022-08-28T06:24:55.190Z,57.39
2022-08-28T06:27:23.057Z,56.92
2022-08-28T06:29:50.240Z,56.39
2022-08-28T06:32:17.624Z,55.68
2022-08-28T06:34:44.764Z,55.66
2022-08-28T06:37:11.967Z,54.97
2022-08-28T06:39:39.434Z,54.46
2022-08-28T06:42:07.189Z,53.96
2022-08-28T06:44:34.553Z,53.80
2022-08-28T06:47:02.410Z,53.25
2022-08-28T06:49:29.658Z,52.81
2022-08-28T06:53:45.566Z,51.61
2022-08-28T06:56:25.407Z,51.00
2022-08-28T06:58:55.977Z,50.73
2022-08-28T07:01:34.012Z,50.24
2022-08-28T07:04:10.224Z,49.90
2022-08-28T07:06:41.040Z,49.90
2022-08-28T07:09:09.739Z,49.69
2022-08-28T07:11:37.300Z,48.99
2022-08-28T07:14:04.597Z,48.21
2022-08-28T07:16:34.516Z,47.85
2022-08-28T07:19:05.000Z,47.19
2022-08-28T07:21:38.808Z,46.47
2022-08-28T07:24:07.728Z,45.90
2022-08-28T07:26:35.998Z,45.73
2022-08-28T07:29:10.377Z,45.37
2022-08-28T07:31:43.373Z,45.90
2022-08-28T07:34:11.121Z,44.63
2022-08-28T07:36:38.599Z,44.47
2022-08-28T07:39:05.665Z,43.43
2022-08-28T07:41:33.740Z,42.74
2022-08-28T07:44:19.411Z,42.25
2022-08-28T07:46:46.834Z,42.45
2022-08-28T07:49:17.342Z,42.02
2022-08-28T07:51:46.979Z,42.05
2022-08-28T07:54:17.999Z,42.12
2022-08-28T07:56:46.437Z,41.16
2022-08-28T07:59:16.575Z,40.84
2022-08-28T08:01:46.769Z,40.76
2022-08-28T08:04:14.595Z,40.40
2022-08-28T08:06:42.055Z,40.30
2022-08-28T08:09:10.737Z,39.31
2022-08-28T08:11:38.420Z,38.66
2022-08-28T08:14:07.805Z,37.53
2022-08-28T08:16:39.140Z,37.68
2022-08-28T08:19:10.254Z,36.98
2022-08-28T08:21:37.764Z,35.66
2022-08-28T08:24:09.582Z,35.36
2022-08-28T08:26:36.799Z,35.14
2022-08-28T08:29:04.018Z,35.16
2022-08-28T08:31:32.658Z,34.59
2022-08-28T08:34:04.074Z,34.03
2022-08-28T08:36:32.553Z,33.60
2022-08-28T08:39:00.465Z,33.65
2022-08-28T08:41:33.654Z,33.46
2022-08-28T08:44:22.350Z,33.05
2022-08-28T08:46:50.210Z,32.97
2022-08-28T08:49:19.896Z,32.59
2022-08-28T08:52:32.544Z,31.91
2022-08-28T08:55:06.446Z,31.51
2022-08-28T08:57:35.043Z,30.77
2022-08-28T09:00:04.122Z,30.51
2022-08-28T09:02:33.014Z,30.42
2022-08-28T09:05:03.975Z,30.53
2022-08-28T09:07:59.259Z,30.28
2022-08-28T09:10:38.907Z,29.85
2022-08-28T09:13:18.300Z,29.23
2022-08-28T09:15:50.650Z,28.96
2022-08-28T09:18:25.317Z,29.57
2022-08-28T09:20:54.048Z,28.58
2022-08-28T09:23:25.286Z,28.58
2022-08-28T09:25:59.613Z,28.24
2022-08-28T09:28:34.674Z,27.46
2022-08-28T09:31:09.691Z,27.94
2022-08-28T09:33:45.954Z,27.96
2022-08-28T09:36:32.651Z,27.89
2022-08-28T09:39:20.814Z,27.01
2022-08-28T09:42:42.170Z,27.33
2022-08-28T09:45:21.267Z,26.65
2022-08-28T09:47:55.872Z,25.99
2022-08-28T09:50:35.146Z,26.26
2022-08-28T09:53:21.327Z,26.72
2022-08-28T09:55:51.697Z,26.36
2022-08-28T09:58:20.973Z,25.75
2022-08-28T10:00:55.745Z,25.08
2022-08-28T10:03:37.953Z,25.80
2022-08-28T10:06:26.881Z,25.83
2022-08-28T10:08:59.901Z,25.81
2022-08-28T10:12:07.087Z,25.43
2022-08-28T10:14:57.374Z,25.22
2022-08-28T10:17:47.769Z,24.62
2022-08-28T10:20:48.324Z,24.44
2022-08-28T10:23:21.930Z,24.43
2022-08-28T10:25:52.431Z,24.38
2022-08-28T10:28:27.671Z,24.04
2022-08-28T10:31:36.323Z,23.59
2022-08-28T10:34:22.042Z,24.02
2022-08-28T10:36:56.400Z,23.20
2022-08-28T10:39:35.851Z,23.63
2022-08-28T10:42:03.914Z,23.82
2022-08-28T10:44:59.111Z,23.49
2022-08-28T10:47:28.821Z,23.00
2022-08-28T10:50:02.121Z,23.28
2022-08-28T10:52:42.000Z,23.43
2022-08-28T10:55:17.236Z,23.38
2022-08-28T10:57:50.989Z,22.99
2022-08-28T11:00:21.598Z,22.94
2022-08-28T11:02:55.200Z,22.74
2022-08-28T11:05:23.571Z,22.82
2022-08-28T11:07:56.025Z,22.79
2022-08-28T11:10:39.421Z,23.78
2022-08-28T11:13:08.118Z,23.69
2022-08-28T11:15:37.549Z,23.38
2022-08-28T11:18:14.197Z,23.08
2022-08-28T11:21:12.465Z,23.24
2022-08-28T11:24:12.075Z,24.01
2022-08-28T11:27:17.318Z,23.83
2022-08-28T11:30:11.533Z,23.18
2022-08-28T11:32:52.802Z,23.95
2022-08-28T11:35:35.190Z,23.58
2022-08-28T11:38:02.756Z,23.90
2022-08-28T11:40:33.154Z,24.12
2022-08-28T11:43:16.048Z,24.53
2022-08-28T11:45:45.813Z,23.91
2022-08-28T11:48:36.515Z,24.44
2022-08-28T11:51:17.507Z,24.21
2022-08-28T11:53:48.212Z,24.55
2022-08-28T11:56:54.173Z,24.44
2022-08-28T11:59:25.730Z,24.49
2022-08-28T12:02:33.899Z,23.80
2022-08-28T12:05:01.601Z,23.95
2022-08-28T12:07:36.939Z,22.81
2022-08-28T12:10:27.554Z,23.62
2022-08-28T12:13:04.932Z,23.92
2022-08-28T12:15:32.626Z,24.37
2022-08-28T12:18:12.131Z,24.56
2022-08-28T12:20:39.281Z,24.25
2022-08-28T12:23:29.723Z,24.17
2022-08-28T12:26:14.747Z,23.49
2022-08-28T12:28:47.965Z,23.60
2022-08-28T12:32:12.135Z,24.52
2022-08-28T12:34:58.115Z,24.25
2022-08-28T12:37:39.462Z,24.46
2022-08-28T12:40:21.787Z,24.10
2022-08-28T12:42:55.817Z,23.91
2022-08-28T12:45:45.615Z,23.74
2022-08-28T12:48:27.495Z,23.94
2022-08-28T12:51:03.042Z,23.61
2022-08-28T12:53:59.224Z,24.23
2022-08-28T12:56:36.635Z,24.94
2022-08-28T12:59:27.184Z,25.30
2022-08-28T13:02:02.695Z,26.05
2022-08-28T13:04:45.831Z,25.71
2022-08-28T13:07:17.486Z,26.09
2022-08-28T13:09:47.525Z,26.61
2022-08-28T13:12:55.346Z,26.28
2022-08-28T13:15:43.881Z,26.13
2022-08-28T13:18:10.935Z,25.72
2022-08-28T13:20:38.384Z,26.24
2022-08-28T13:23:05.612Z,26.63
2022-08-28T13:25:35.227Z,26.40
2022-08-28T13:28:04.851Z,26.92
2022-08-28T13:30:34.787Z,26.56
2022-08-28T13:33:21.341Z,26.81
2022-08-28T13:35:49.125Z,27.00
2022-08-28T13:38:21.020Z,26.35
2022-08-28T13:41:03.407Z,26.38
2022-08-28T13:43:46.430Z,26.62
2022-08-28T13:46:13.913Z,26.46
2022-08-28T13:48:41.227Z,26.67
2022-08-28T13:51:10.823Z,26.60
2022-08-28T13:53:39.103Z,26.92
2022-08-28T13:56:06.683Z,26.95
2022-08-28T13:58:33.804Z,26.96
2022-08-28T14:01:01.142Z,27.17
2022-08-28T14:03:38.682Z,26.65
2022-08-28T14:06:12.043Z,26.57
2022-08-28T14:08:41.096Z,27.18
2022-08-28T14:11:08.696Z,27.51
2022-08-28T14:13:40.475Z,26.63
2022-08-28T14:16:17.098Z,26.97
2022-08-28T14:18:46.836Z,26.67
2022-08-28T14:21:14.116Z,26.20
2022-08-28T14:23:41.339Z,26.27
2022-08-28T14:26:08.509Z,26.49
2022-08-28T14:28:35.752Z,26.89
2022-08-28T14:31:05.560Z,27.02
2022-08-28T14:33:34.300Z,27.42
2022-08-28T14:36:04.358Z,28.65
2022-08-28T14:38:32.167Z,29.18
2022-08-28T14:40:59.481Z,29.61
2022-08-28T14:43:26.940Z,29.88
2022-08-28T14:45:54.309Z,29.95
2022-08-28T14:48:21.746Z,29.98
2022-08-28T14:50:48.973Z,30.79
2022-08-28T14:53:16.628Z,31.06
2022-08-28T14:55:46.315Z,31.46
2022-08-28T14:58:15.364Z,31.61
2022-08-28T15:00:47.423Z,32.23
2022-08-28T15:03:15.102Z,32.99
2022-08-28T15:06:03.544Z,32.94
2022-08-28T15:08:31.404Z,32.78
2022-08-28T15:11:18.762Z,33.54
2022-08-28T15:14:02.064Z,33.58
2022-08-28T15:17:17.251Z,33.68
2022-08-28T15:19:56.410Z,34.01
2022-08-28T15:22:32.965Z,34.46
2022-08-28T15:25:00.127Z,35.18
2022-08-28T15:27:27.302Z,35.12
2022-08-28T15:29:54.517Z,34.98
2022-08-28T15:32:21.665Z,35.38
2022-08-28T15:34:49.109Z,36.04
2022-08-28T15:37:16.259Z,35.81
2022-08-28T15:40:02.263Z,35.78
2022-08-28T15:42:30.007Z,36.40
2022-08-28T15:44:57.652Z,36.47
2022-08-28T15:47:25.745Z,37.11
2022-08-28T15:49:58.978Z,37.63
2022-08-28T15:52:26.326Z,38.36
2022-08-28T15:54:53.848Z,38.94
2022-08-28T15:57:21.546Z,38.67
2022-08-28T15:59:50.752Z,38.99
2022-08-28T16:02:22.625Z,39.27
2022-08-28T16:04:50.326Z,39.66
2022-08-28T16:07:18.191Z,40.74
2022-08-28T16:09:45.437Z,41.17
2022-08-28T16:12:12.696Z,41.76
2022-08-28T16:14:40.254Z,42.43
2022-08-28T16:17:10.861Z,43.02
2022-08-28T16:19:40.063Z,43.54
2022-08-28T16:22:08.272Z,43.39
2022-08-28T16:24:35.623Z,43.54
2022-08-28T16:27:03.080Z,43.59
2022-08-28T16:29:30.344Z,44.19
2022-08-28T16:31:57.671Z,44.89
2022-08-28T16:34:30.785Z,45.31
2022-08-28T16:36:59.819Z,46.22
2022-08-28T16:39:27.242Z,46.73
2022-08-28T16:41:54.584Z,46.88
2022-08-28T16:44:22.992Z,47.46
2022-08-28T16:46:50.693Z,47.90
2022-08-28T16:49:17.980Z,47.90
2022-08-28T16:51:45.155Z,48.50
2022-08-28T16:54:12.581Z,48.96
2022-08-28T16:56:40.484Z,49.28
2022-08-28T16:59:10.483Z,49.62
2022-08-28T17:01:40.808Z,49.57
2022-08-28T17:04:10.193Z,49.86
2022-08-28T17:06:37.343Z,50.24
2022-08-28T17:09:04.453Z,50.64
2022-08-28T17:11:31.980Z,50.84
2022-08-28T17:14:00.405Z,50.73
2022-08-28T17:16:29.908Z,51.39
2022-08-28T17:18:58.013Z,51.79
2022-08-28T17:21:43.899Z,52.25
2022-08-28T17:24:12.931Z,52.30
2022-08-28T17:26:41.060Z,52.61
2022-08-28T17:29:08.830Z,53.15
2022-08-28T17:31:36.109Z,53.81
2022-08-28T17:34:03.657Z,54.29
2022-08-28T17:36:33.353Z,54.79
2022-08-28T17:39:06.334Z,55.11
2022-08-28T17:41:34.434Z,55.56
2022-08-28T17:44:02.475Z,55.94
2022-08-28T17:46:32.769Z,56.23
2022-08-28T17:49:01.588Z,56.56
2022-08-28T17:51:42.115Z,56.95
2022-08-28T17:54:15.648Z,57.54
2022-08-28T17:56:42.913Z,57.92
2022-08-28T17:59:11.646Z,58.31
2022-08-28T18:01:39.099Z,58.51
2022-08-28T18:04:06.446Z,58.73
2022-08-28T18:06:33.649Z,58.94
2022-08-28T18:09:01.138Z,59.17
2022-08-28T18:11:28.676Z,59.46
2022-08-28T18:13:55.949Z,59.68
2022-08-28T18:16:26.495Z,59.59
2022-08-28T18:18:57.392Z,59.99
2022-08-28T18:21:25.165Z,60.58
2022-08-28T18:23:52.410Z,60.89
2022-08-28T18:26:20.068Z,61.16
2022-08-28T18:28:49.512Z,61.27
2022-08-28T18:31:17.585Z,61.32
2022-08-28T18:33:45.019Z,61.34
2022-08-28T18:36:13.282Z,61.76
2022-08-28T18:38:40.833Z,61.96
2022-08-28T18:41:08.839Z,62.07
2022-08-28T18:43:37.629Z,62.24
2022-08-28T18:46:06.016Z,62.41
2022-08-28T18:48:33.425Z,62.53
2022-08-28T18:51:00.773Z,62.31
2022-08-28T18:53:29.255Z,62.34
2022-08-28T18:55:56.409Z,62.34
2022-08-28T18:58:27.904Z,62.54
2022-08-28T19:00:55.314Z,62.67
2022-08-28T19:03:22.569Z,62.71
2022-08-28T19:05:50.024Z,63.03
2022-08-28T19:08:17.275Z,63.25
2022-08-28T19:11:33.893Z,63.21
2022-08-28T19:14:03.961Z,63.36
2022-08-28T19:16:32.202Z,63.27
2022-08-28T19:18:59.429Z,63.26
2022-08-28T19:21:29.444Z,63.45
2022-08-28T19:23:57.321Z,63.55
2022-08-28T19:26:27.675Z,63.84
2022-08-28T19:28:55.315Z,63.86
2022-08-28T19:31:23.937Z,64.27
2022-08-28T19:33:51.179Z,64.18
2022-08-28T19:36:18.998Z,64.50
2022-08-28T19:38:46.256Z,64.65
2022-08-28T19:41:14.224Z,64.81
2022-08-28T19:43:44.298Z,65.06
2022-08-28T19:46:18.310Z,65.17
2022-08-28T19:48:51.557Z,65.24
2022-08-28T19:51:22.629Z,65.49
2022-08-28T19:53:58.442Z,65.46
2022-08-28T19:56:27.631Z,65.42
2022-08-28T19:58:56.767Z,65.63
2022-08-28T20:01:24.138Z,65.54
2022-08-28T20:03:52.771Z,66.00
2022-08-28T20:06:19.922Z,65.99
2022-08-28T20:08:47.186Z,66.00
2022-08-28T20:11:25.290Z,66.16
2022-08-28T20:13:57.095Z,66.14
2022-08-28T20:16:27.500Z,66.13
2022-08-28T20:18:55.356Z,66.58
2022-08-28T20:21:25.846Z,66.43
2022-08-28T20:24:09.497Z,66.29
2022-08-28T20:26:36.866Z,66.33
2022-08-28T20:29:05.289Z,66.35
2022-08-28T20:31:32.801Z,66.43
2022-08-28T20:34:00.349Z,66.56
2022-08-28T20:36:27.711Z,66.65
2022-08-28T20:38:55.260Z,66.62
2022-08-28T20:41:23.025Z,66.70
2022-08-28T20:43:50.383Z,66.73
2022-08-28T20:46:18.422Z,66.59
2022-08-28T20:48:46.112Z,66.86
2022-08-28T20:51:13.384Z,67.06
2022-08-28T20:53:40.715Z,67.12
2022-08-28T20:56:09.094Z,67.26
2022-08-28T20:58:36.771Z,67.20
2022-08-28T21:01:04.027Z,67.11
2022-08-28T21:03:31.365Z,67.19
2022-08-28T21:05:58.511Z,67.25
2022-08-28T21:08:26.180Z,67.34
2022-08-28T21:10:53.278Z,67.54
2022-08-28T21:13:20.989Z,67.56
2022-08-28T21:15:48.647Z,67.53
2022-08-28T21:18:16.067Z,67.56
2022-08-28T21:20:43.460Z,67.65
2022-08-28T21:23:10.915Z,67.74
2022-08-28T21:25:40.659Z,67.87
2022-08-28T21:28:07.877Z,67.98
2022-08-28T21:30:35.457Z,68.04
2022-08-28T21:33:02.794Z,68.07
2022-08-28T21:35:30.063Z,68.18
2022-08-28T21:37:57.192Z,68.08
2022-08-28T21:40:24.405Z,68.12
2022-08-28T21:42:51.728Z,68.43
2022-08-28T21:45:19.375Z,68.62
2022-08-28T21:47:46.621Z,68.67
2022-08-28T21:50:13.972Z,68.94
2022-08-28T21:52:41.223Z,68.84
2022-08-28T21:55:11.285Z,68.78
2022-08-28T21:57:38.596Z,68.88
2022-08-28T22:00:11.383Z,68.94
2022-08-28T22:02:39.292Z,69.22
2022-08-28T22:05:10.898Z,69.32
2022-08-28T22:07:38.056Z,69.59
2022-08-28T22:10:05.747Z,69.52
2022-08-28T22:12:32.998Z,69.44
2022-08-28T22:15:00.343Z,69.50
2022-08-28T22:17:27.679Z,69.58
2022-08-28T22:19:55.430Z,69.87
2022-08-28T22:22:41.314Z,69.87
2022-08-28T22:25:09.112Z,69.68
2022-08-28T22:27:36.229Z,69.77
2022-08-28T22:30:04.306Z,69.77
2022-08-28T22:32:31.451Z,69.93
2022-08-28T22:34:58.601Z,70.02
2022-08-28T22:37:26.275Z,70.10
2022-08-28T22:39:53.521Z,69.96
2022-08-28T22:42:23.334Z,70.03
2022-08-28T22:44:50.478Z,69.86
2022-08-28T22:47:18.958Z,70.03
2022-08-28T22:49:46.429Z,70.18
2022-08-28T22:52:13.562Z,70.17
2022-08-28T22:54:40.725Z,70.23
2022-08-28T22:57:08.584Z,70.32
2022-08-28T22:59:35.731Z,70.42
2022-08-28T23:02:03.958Z,70.37
2022-08-28T23:04:31.460Z,70.49
2022-08-28T23:06:58.617Z,70.71
2022-08-28T23:09:25.963Z,70.75
2022-08-28T23:11:53.524Z,70.95
2022-08-28T23:14:20.663Z,70.90
2022-08-28T23:16:48.064Z,71.03
2022-08-28T23:19:17.126Z,70.98
2022-08-28T23:21:44.558Z,71.17
2022-08-28T23:24:13.377Z,70.95
2022-08-28T23:26:41.391Z,70.58
2022-08-28T23:29:10.139Z,70.43
2022-08-28T23:31:37.864Z,70.36
2022-08-28T23:34:05.553Z,70.57
2022-08-28T23:36:35.302Z,70.79
2022-08-28T23:39:03.647Z,70.79
2022-08-28T23:41:31.819Z,70.98
2022-08-28T23:43:59.067Z,70.85
2022-08-28T23:46:26.214Z,71.02
2022-08-28T23:48:53.712Z,71.01
2022-08-28T23:51:22.255Z,70.92
2022-08-28T23:53:50.032Z,71.13
2022-08-28T23:56:22.086Z,71.24
2022-08-28T23:58:55.327Z,71.18
